sensor_id;sensor_type;location;lat;lon;timestamp;P1;durP1;ratioP1;P2;durP2;ratioP2
56810;SDS011;42691;47.234;27.494;2022-12-15T00:02:01;8.50;;;4.93;;
56810;SDS011;42691;47.234;27.494;2022-12-15T00:04:45;6.53;;;4.25;;
56810;SDS011;42691;47.234;27.494;2022-12-15T00:10:14;9.02;;;4.80;;
56810;SDS011;42691;47.234;27.494;2022-12-15T00:15:44;7.90;;;6.20;;
56810;SDS011;42691;47.234;27.494;2022-12-15T00:18:29;8.10;;;5.25;;
56810;SDS011;42691;47.234;27.494;2022-12-15T00:21:13;9.30;;;7.03;;
56810;SDS011;42691;47.234;27.494;2022-12-15T00:23:57;5.95;;;4.63;;
56810;SDS011;42691;47.234;27.494;2022-12-15T00:26:41;5.72;;;4.97;;
56810;SDS011;42691;47.234;27.494;2022-12-15T00:29:25;4.85;;;4.22;;
56810;SDS011;42691;47.234;27.494;2022-12-15T00:32:08;8.40;;;5.22;;
56810;SDS011;42691;47.234;27.494;2022-12-15T00:34:52;6.45;;;4.45;;
56810;SDS011;42691;47.234;27.494;2022-12-15T00:37:36;8.13;;;4.63;;
56810;SDS011;42691;47.234;27.494;2022-12-15T00:40:20;7.15;;;4.88;;
56810;SDS011;42691;47.234;27.494;2022-12-15T00:42:46;6.28;;;4.53;;
56810;SDS011;42691;47.234;27.494;2022-12-15T00:45:11;10.10;;;5.20;;
56810;SDS011;42691;47.234;27.494;2022-12-15T00:47:37;6.40;;;4.65;;
56810;SDS011;42691;47.234;27.494;2022-12-15T00:50:02;7.68;;;4.90;;
56810;SDS011;42691;47.234;27.494;2022-12-15T00:52:46;11.00;;;7.72;;
56810;SDS011;42691;47.234;27.494;2022-12-15T00:55:31;10.73;;;6.25;;
56810;SDS011;42691;47.234;27.494;2022-12-15T00:58:15;9.48;;;5.78;;
56810;SDS011;42691;47.234;27.494;2022-12-15T01:01:04;9.13;;;7.28;;
56810;SDS011;42691;47.234;27.494;2022-12-15T01:03:52;8.98;;;5.05;;
56810;SDS011;42691;47.234;27.494;2022-12-15T01:06:36;10.07;;;5.47;;
56810;SDS011;42691;47.234;27.494;2022-12-15T01:09:20;7.95;;;5.30;;
56810;SDS011;42691;47.234;27.494;2022-12-15T01:12:04;11.15;;;6.32;;
56810;SDS011;42691;47.234;27.494;2022-12-15T01:14:48;9.88;;;6.03;;
56810;SDS011;42691;47.234;27.494;2022-12-15T01:17:32;9.05;;;6.18;;
56810;SDS011;42691;47.234;27.494;2022-12-15T01:20:16;8.77;;;5.13;;
56810;SDS011;42691;47.234;27.494;2022-12-15T01:22:45;4.88;;;4.25;;
56810;SDS011;42691;47.234;27.494;2022-12-15T01:25:15;7.03;;;4.40;;
56810;SDS011;42691;47.234;27.494;2022-12-15T01:27:41;11.10;;;5.65;;
56810;SDS011;42691;47.234;27.494;2022-12-15T01:30:07;7.15;;;4.22;;
56810;SDS011;42691;47.234;27.494;2022-12-15T01:32:34;8.07;;;5.18;;
56810;SDS011;42691;47.234;27.494;2022-12-15T01:35:00;12.35;;;8.02;;
56810;SDS011;42691;47.234;27.494;2022-12-15T01:37:26;6.82;;;4.55;;
56810;SDS011;42691;47.234;27.494;2022-12-15T01:39:52;9.40;;;5.25;;
56810;SDS011;42691;47.234;27.494;2022-12-15T01:42:36;6.88;;;5.20;;
56810;SDS011;42691;47.234;27.494;2022-12-15T01:48:09;7.97;;;5.00;;
56810;SDS011;42691;47.234;27.494;2022-12-15T01:53:40;7.50;;;5.60;;
56810;SDS011;42691;47.234;27.494;2022-12-15T01:56:09;7.57;;;5.43;;
56810;SDS011;42691;47.234;27.494;2022-12-15T01:58:36;7.05;;;3.45;;
56810;SDS011;42691;47.234;27.494;2022-12-15T02:01:03;8.60;;;5.07;;
56810;SDS011;42691;47.234;27.494;2022-12-15T02:03:29;6.63;;;3.95;;
56810;SDS011;42691;47.234;27.494;2022-12-15T02:05:55;7.20;;;3.35;;
56810;SDS011;42691;47.234;27.494;2022-12-15T02:08:24;6.35;;;3.80;;
56810;SDS011;42691;47.234;27.494;2022-12-15T02:13:20;6.53;;;4.68;;
56810;SDS011;42691;47.234;27.494;2022-12-15T02:15:49;9.80;;;4.50;;
56810;SDS011;42691;47.234;27.494;2022-12-15T02:21:28;7.47;;;4.90;;
56810;SDS011;42691;47.234;27.494;2022-12-15T02:32:30;9.52;;;5.45;;
56810;SDS011;42691;47.234;27.494;2022-12-15T02:35:02;8.07;;;6.03;;
56810;SDS011;42691;47.234;27.494;2022-12-15T02:37:36;10.35;;;8.07;;
56810;SDS011;42691;47.234;27.494;2022-12-15T02:40:05;10.75;;;6.60;;
56810;SDS011;42691;47.234;27.494;2022-12-15T02:42:33;10.23;;;8.73;;
56810;SDS011;42691;47.234;27.494;2022-12-15T02:45:07;8.50;;;6.88;;
56810;SDS011;42691;47.234;27.494;2022-12-15T02:47:36;11.43;;;8.60;;
56810;SDS011;42691;47.234;27.494;2022-12-15T02:53:10;9.18;;;7.20;;
56810;SDS011;42691;47.234;27.494;2022-12-15T02:58:23;11.93;;;8.20;;
56810;SDS011;42691;47.234;27.494;2022-12-15T03:01:01;14.13;;;6.20;;
56810;SDS011;42691;47.234;27.494;2022-12-15T03:03:32;6.15;;;4.60;;
56810;SDS011;42691;47.234;27.494;2022-12-15T03:05:59;6.35;;;4.85;;
56810;SDS011;42691;47.234;27.494;2022-12-15T03:08:29;7.25;;;4.53;;
56810;SDS011;42691;47.234;27.494;2022-12-15T03:10:54;7.38;;;5.63;;
56810;SDS011;42691;47.234;27.494;2022-12-15T03:13:22;8.57;;;4.13;;
56810;SDS011;42691;47.234;27.494;2022-12-15T03:15:48;6.18;;;4.68;;
56810;SDS011;42691;47.234;27.494;2022-12-15T03:18:14;8.52;;;4.00;;
56810;SDS011;42691;47.234;27.494;2022-12-15T03:20:39;6.47;;;3.60;;
56810;SDS011;42691;47.234;27.494;2022-12-15T03:23:05;6.57;;;4.22;;
56810;SDS011;42691;47.234;27.494;2022-12-15T03:25:31;4.65;;;3.42;;
56810;SDS011;42691;47.234;27.494;2022-12-15T03:27:56;4.28;;;3.40;;
56810;SDS011;42691;47.234;27.494;2022-12-15T03:30:22;4.63;;;3.20;;
56810;SDS011;42691;47.234;27.494;2022-12-15T03:32:47;6.68;;;4.07;;
56810;SDS011;42691;47.234;27.494;2022-12-15T03:35:14;4.63;;;3.47;;
56810;SDS011;42691;47.234;27.494;2022-12-15T03:37:40;5.70;;;3.42;;
56810;SDS011;42691;47.234;27.494;2022-12-15T03:40:07;6.20;;;3.03;;
56810;SDS011;42691;47.234;27.494;2022-12-15T03:42:34;6.25;;;3.58;;
56810;SDS011;42691;47.234;27.494;2022-12-15T03:45:12;4.80;;;2.72;;
56810;SDS011;42691;47.234;27.494;2022-12-15T03:47:46;7.38;;;4.32;;
56810;SDS011;42691;47.234;27.494;2022-12-15T03:50:13;3.22;;;2.75;;
56810;SDS011;42691;47.234;27.494;2022-12-15T03:52:41;5.72;;;3.22;;
56810;SDS011;42691;47.234;27.494;2022-12-15T03:55:06;6.55;;;3.65;;
56810;SDS011;42691;47.234;27.494;2022-12-15T03:57:32;7.28;;;3.75;;
56810;SDS011;42691;47.234;27.494;2022-12-15T03:59:58;5.32;;;2.65;;
56810;SDS011;42691;47.234;27.494;2022-12-15T04:02:24;4.47;;;2.88;;
56810;SDS011;42691;47.234;27.494;2022-12-15T04:04:49;5.32;;;4.07;;
56810;SDS011;42691;47.234;27.494;2022-12-15T04:07:15;4.78;;;3.28;;
56810;SDS011;42691;47.234;27.494;2022-12-15T04:09:40;4.05;;;3.00;;
56810;SDS011;42691;47.234;27.494;2022-12-15T04:12:06;5.82;;;3.28;;
56810;SDS011;42691;47.234;27.494;2022-12-15T04:14:31;6.88;;;4.75;;
56810;SDS011;42691;47.234;27.494;2022-12-15T04:16:57;6.65;;;3.65;;
56810;SDS011;42691;47.234;27.494;2022-12-15T04:19:23;6.85;;;4.07;;
56810;SDS011;42691;47.234;27.494;2022-12-15T04:22:07;6.05;;;3.28;;
56810;SDS011;42691;47.234;27.494;2022-12-15T04:24:32;7.10;;;3.60;;
56810;SDS011;42691;47.234;27.494;2022-12-15T04:27:16;5.53;;;3.78;;
56810;SDS011;42691;47.234;27.494;2022-12-15T04:32:44;3.38;;;2.97;;
56810;SDS011;42691;47.234;27.494;2022-12-15T04:35:29;5.38;;;3.47;;
56810;SDS011;42691;47.234;27.494;2022-12-15T04:38:15;7.60;;;3.83;;
56810;SDS011;42691;47.234;27.494;2022-12-15T04:40:59;7.28;;;4.22;;
56810;SDS011;42691;47.234;27.494;2022-12-15T04:43:43;3.17;;;2.50;;
56810;SDS011;42691;47.234;27.494;2022-12-15T04:46:27;6.28;;;4.30;;
56810;SDS011;42691;47.234;27.494;2022-12-15T04:49:11;4.80;;;3.33;;
56810;SDS011;42691;47.234;27.494;2022-12-15T04:51:56;5.85;;;3.92;;
56810;SDS011;42691;47.234;27.494;2022-12-15T04:54:40;7.55;;;4.05;;
56810;SDS011;42691;47.234;27.494;2022-12-15T04:57:24;5.30;;;3.40;;
56810;SDS011;42691;47.234;27.494;2022-12-15T05:00:08;4.20;;;2.95;;
56810;SDS011;42691;47.234;27.494;2022-12-15T05:02:53;7.53;;;4.28;;
56810;SDS011;42691;47.234;27.494;2022-12-15T05:05:37;4.13;;;2.83;;
56810;SDS011;42691;47.234;27.494;2022-12-15T05:08:21;7.15;;;3.80;;
56810;SDS011;42691;47.234;27.494;2022-12-15T05:11:05;4.68;;;2.95;;
56810;SDS011;42691;47.234;27.494;2022-12-15T05:13:49;9.60;;;4.22;;
56810;SDS011;42691;47.234;27.494;2022-12-15T05:16:33;8.25;;;3.58;;
56810;SDS011;42691;47.234;27.494;2022-12-15T05:22:01;7.10;;;4.53;;
56810;SDS011;42691;47.234;27.494;2022-12-15T05:24:45;8.82;;;4.78;;
56810;SDS011;42691;47.234;27.494;2022-12-15T05:27:29;5.30;;;4.38;;
56810;SDS011;42691;47.234;27.494;2022-12-15T05:30:13;6.90;;;3.53;;
56810;SDS011;42691;47.234;27.494;2022-12-15T05:33:01;6.03;;;4.30;;
56810;SDS011;42691;47.234;27.494;2022-12-15T05:35:28;5.93;;;3.08;;
56810;SDS011;42691;47.234;27.494;2022-12-15T05:37:53;5.60;;;4.38;;
56810;SDS011;42691;47.234;27.494;2022-12-15T05:40:18;9.73;;;5.00;;
56810;SDS011;42691;47.234;27.494;2022-12-15T05:42:44;7.07;;;4.45;;
56810;SDS011;42691;47.234;27.494;2022-12-15T05:45:09;10.07;;;3.55;;
56810;SDS011;42691;47.234;27.494;2022-12-15T05:47:35;5.13;;;3.65;;
56810;SDS011;42691;47.234;27.494;2022-12-15T05:50:00;9.73;;;5.18;;
56810;SDS011;42691;47.234;27.494;2022-12-15T05:52:26;5.47;;;4.65;;
56810;SDS011;42691;47.234;27.494;2022-12-15T05:54:51;7.18;;;4.53;;
56810;SDS011;42691;47.234;27.494;2022-12-15T05:57:16;5.68;;;4.00;;
56810;SDS011;42691;47.234;27.494;2022-12-15T05:59:42;8.20;;;5.00;;
56810;SDS011;42691;47.234;27.494;2022-12-15T06:02:07;7.88;;;4.80;;
56810;SDS011;42691;47.234;27.494;2022-12-15T06:04:33;8.98;;;4.85;;
56810;SDS011;42691;47.234;27.494;2022-12-15T06:06:58;6.35;;;5.18;;
56810;SDS011;42691;47.234;27.494;2022-12-15T06:09:23;13.63;;;4.40;;
56810;SDS011;42691;47.234;27.494;2022-12-15T06:11:49;6.55;;;3.90;;
56810;SDS011;42691;47.234;27.494;2022-12-15T06:14:14;8.73;;;4.18;;
56810;SDS011;42691;47.234;27.494;2022-12-15T06:16:40;7.57;;;4.32;;
56810;SDS011;42691;47.234;27.494;2022-12-15T06:19:05;7.03;;;5.00;;
56810;SDS011;42691;47.234;27.494;2022-12-15T06:21:32;4.32;;;3.20;;
56810;SDS011;42691;47.234;27.494;2022-12-15T06:24:02;11.10;;;4.43;;
56810;SDS011;42691;47.234;27.494;2022-12-15T06:26:31;7.10;;;4.22;;
56810;SDS011;42691;47.234;27.494;2022-12-15T06:28:59;5.10;;;4.05;;
56810;SDS011;42691;47.234;27.494;2022-12-15T06:31:28;6.22;;;4.32;;
56810;SDS011;42691;47.234;27.494;2022-12-15T06:33:54;5.53;;;3.42;;
56810;SDS011;42691;47.234;27.494;2022-12-15T06:36:20;3.70;;;2.95;;
56810;SDS011;42691;47.234;27.494;2022-12-15T06:38:50;7.10;;;3.97;;
56810;SDS011;42691;47.234;27.494;2022-12-15T06:41:17;7.00;;;3.20;;
56810;SDS011;42691;47.234;27.494;2022-12-15T06:43:48;6.80;;;4.13;;
56810;SDS011;42691;47.234;27.494;2022-12-15T06:46:18;6.17;;;3.53;;
56810;SDS011;42691;47.234;27.494;2022-12-15T06:48:44;6.68;;;3.50;;
56810;SDS011;42691;47.234;27.494;2022-12-15T06:51:11;8.32;;;4.82;;
56810;SDS011;42691;47.234;27.494;2022-12-15T06:53:38;4.35;;;3.45;;
56810;SDS011;42691;47.234;27.494;2022-12-15T06:56:14;4.70;;;3.80;;
56810;SDS011;42691;47.234;27.494;2022-12-15T06:58:46;7.25;;;3.92;;
56810;SDS011;42691;47.234;27.494;2022-12-15T07:01:12;5.65;;;4.97;;
56810;SDS011;42691;47.234;27.494;2022-12-15T07:03:39;8.27;;;3.95;;
56810;SDS011;42691;47.234;27.494;2022-12-15T07:06:06;6.47;;;5.03;;
56810;SDS011;42691;47.234;27.494;2022-12-15T07:08:34;6.75;;;5.40;;
56810;SDS011;42691;47.234;27.494;2022-12-15T07:11:03;6.35;;;3.58;;
56810;SDS011;42691;47.234;27.494;2022-12-15T07:13:30;3.95;;;2.95;;
56810;SDS011;42691;47.234;27.494;2022-12-15T07:15:59;6.95;;;4.80;;
56810;SDS011;42691;47.234;27.494;2022-12-15T07:18:25;5.32;;;3.90;;
56810;SDS011;42691;47.234;27.494;2022-12-15T07:20:50;5.35;;;3.58;;
56810;SDS011;42691;47.234;27.494;2022-12-15T07:23:16;6.90;;;5.07;;
56810;SDS011;42691;47.234;27.494;2022-12-15T07:25:42;6.05;;;3.67;;
56810;SDS011;42691;47.234;27.494;2022-12-15T07:28:07;5.65;;;3.60;;
56810;SDS011;42691;47.234;27.494;2022-12-15T07:30:33;14.48;;;4.65;;
56810;SDS011;42691;47.234;27.494;2022-12-15T07:32:59;6.45;;;4.43;;
56810;SDS011;42691;47.234;27.494;2022-12-15T07:35:25;6.75;;;4.22;;
56810;SDS011;42691;47.234;27.494;2022-12-15T07:37:50;4.32;;;3.30;;
56810;SDS011;42691;47.234;27.494;2022-12-15T07:40:16;5.03;;;3.92;;
56810;SDS011;42691;47.234;27.494;2022-12-15T07:42:41;3.42;;;2.88;;
56810;SDS011;42691;47.234;27.494;2022-12-15T07:45:07;8.55;;;4.15;;
56810;SDS011;42691;47.234;27.494;2022-12-15T07:47:33;4.97;;;3.17;;
56810;SDS011;42691;47.234;27.494;2022-12-15T07:49:59;7.45;;;4.03;;
56810;SDS011;42691;47.234;27.494;2022-12-15T07:52:25;6.50;;;4.28;;
56810;SDS011;42691;47.234;27.494;2022-12-15T07:54:51;9.50;;;3.45;;
56810;SDS011;42691;47.234;27.494;2022-12-15T07:57:16;9.13;;;5.72;;
56810;SDS011;42691;47.234;27.494;2022-12-15T07:59:42;9.52;;;5.35;;
56810;SDS011;42691;47.234;27.494;2022-12-15T08:02:09;10.60;;;3.50;;
56810;SDS011;42691;47.234;27.494;2022-12-15T08:04:35;10.95;;;4.32;;
56810;SDS011;42691;47.234;27.494;2022-12-15T08:07:01;8.82;;;4.97;;
56810;SDS011;42691;47.234;27.494;2022-12-15T08:09:26;8.18;;;3.88;;
56810;SDS011;42691;47.234;27.494;2022-12-15T08:11:52;6.88;;;3.92;;
56810;SDS011;42691;47.234;27.494;2022-12-15T08:14:17;8.27;;;3.63;;
56810;SDS011;42691;47.234;27.494;2022-12-15T08:16:43;8.45;;;3.08;;
56810;SDS011;42691;47.234;27.494;2022-12-15T08:19:12;6.40;;;3.38;;
56810;SDS011;42691;47.234;27.494;2022-12-15T08:21:39;5.03;;;3.10;;
56810;SDS011;42691;47.234;27.494;2022-12-15T08:24:06;5.28;;;3.08;;
56810;SDS011;42691;47.234;27.494;2022-12-15T08:26:33;5.90;;;2.80;;
56810;SDS011;42691;47.234;27.494;2022-12-15T08:29:02;6.65;;;3.60;;
56810;SDS011;42691;47.234;27.494;2022-12-15T08:31:30;4.07;;;2.60;;
56810;SDS011;42691;47.234;27.494;2022-12-15T08:33:57;4.93;;;3.22;;
56810;SDS011;42691;47.234;27.494;2022-12-15T08:36:23;5.38;;;3.00;;
56810;SDS011;42691;47.234;27.494;2022-12-15T08:38:48;6.32;;;3.28;;
56810;SDS011;42691;47.234;27.494;2022-12-15T08:41:18;4.82;;;3.40;;
56810;SDS011;42691;47.234;27.494;2022-12-15T08:43:47;7.78;;;3.20;;
56810;SDS011;42691;47.234;27.494;2022-12-15T08:46:14;4.65;;;3.08;;
56810;SDS011;42691;47.234;27.494;2022-12-15T08:48:44;5.15;;;3.58;;
56810;SDS011;42691;47.234;27.494;2022-12-15T08:51:10;7.40;;;3.55;;
56810;SDS011;42691;47.234;27.494;2022-12-15T08:53:36;6.70;;;4.47;;
56810;SDS011;42691;47.234;27.494;2022-12-15T08:56:06;5.47;;;3.08;;
56810;SDS011;42691;47.234;27.494;2022-12-15T08:58:42;10.93;;;4.05;;
56810;SDS011;42691;47.234;27.494;2022-12-15T09:01:10;6.78;;;4.35;;
56810;SDS011;42691;47.234;27.494;2022-12-15T09:03:37;5.05;;;2.88;;
56810;SDS011;42691;47.234;27.494;2022-12-15T09:06:08;5.32;;;2.90;;
56810;SDS011;42691;47.234;27.494;2022-12-15T09:08:40;5.90;;;3.20;;
56810;SDS011;42691;47.234;27.494;2022-12-15T09:11:06;4.97;;;2.90;;
56810;SDS011;42691;47.234;27.494;2022-12-15T09:13:31;8.50;;;3.00;;
56810;SDS011;42691;47.234;27.494;2022-12-15T09:15:58;4.28;;;2.90;;
56810;SDS011;42691;47.234;27.494;2022-12-15T09:18:29;4.13;;;3.03;;
56810;SDS011;42691;47.234;27.494;2022-12-15T09:20:59;3.63;;;2.05;;
56810;SDS011;42691;47.234;27.494;2022-12-15T09:23:25;4.88;;;3.35;;
56810;SDS011;42691;47.234;27.494;2022-12-15T09:25:57;6.05;;;2.65;;
56810;SDS011;42691;47.234;27.494;2022-12-15T09:30:50;4.18;;;3.00;;
56810;SDS011;42691;47.234;27.494;2022-12-15T09:33:16;5.97;;;3.58;;
56810;SDS011;42691;47.234;27.494;2022-12-15T09:35:48;7.63;;;2.30;;
56810;SDS011;42691;47.234;27.494;2022-12-15T09:38:14;5.70;;;3.65;;
56810;SDS011;42691;47.234;27.494;2022-12-15T09:40:40;6.93;;;3.75;;
56810;SDS011;42691;47.234;27.494;2022-12-15T09:43:05;4.80;;;2.72;;
56810;SDS011;42691;47.234;27.494;2022-12-15T09:45:33;5.68;;;4.28;;
56810;SDS011;42691;47.234;27.494;2022-12-15T09:48:16;6.78;;;4.03;;
56810;SDS011;42691;47.234;27.494;2022-12-15T09:50:45;5.82;;;4.00;;
56810;SDS011;42691;47.234;27.494;2022-12-15T09:53:15;8.27;;;4.10;;
56810;SDS011;42691;47.234;27.494;2022-12-15T09:55:42;8.07;;;3.30;;
56810;SDS011;42691;47.234;27.494;2022-12-15T09:58:15;7.88;;;3.17;;
56810;SDS011;42691;47.234;27.494;2022-12-15T10:00:54;4.50;;;3.03;;
56810;SDS011;42691;47.234;27.494;2022-12-15T10:03:39;7.70;;;4.78;;
56810;SDS011;42691;47.234;27.494;2022-12-15T10:06:24;7.28;;;3.30;;
56810;SDS011;42691;47.234;27.494;2022-12-15T10:14:06;6.75;;;4.63;;
56810;SDS011;42691;47.234;27.494;2022-12-15T10:22:09;7.35;;;3.88;;
56810;SDS011;42691;47.234;27.494;2022-12-15T10:24:37;6.63;;;4.20;;
56810;SDS011;42691;47.234;27.494;2022-12-15T10:32:15;6.75;;;3.13;;
56810;SDS011;42691;47.234;27.494;2022-12-15T10:34:48;5.72;;;3.42;;
56810;SDS011;42691;47.234;27.494;2022-12-15T10:37:17;6.32;;;3.45;;
56810;SDS011;42691;47.234;27.494;2022-12-15T10:39:46;5.13;;;3.35;;
56810;SDS011;42691;47.234;27.494;2022-12-15T10:42:14;3.72;;;3.30;;
56810;SDS011;42691;47.234;27.494;2022-12-15T10:44:48;6.00;;;4.03;;
56810;SDS011;42691;47.234;27.494;2022-12-15T10:47:25;7.03;;;3.33;;
56810;SDS011;42691;47.234;27.494;2022-12-15T10:49:53;7.80;;;3.05;;
56810;SDS011;42691;47.234;27.494;2022-12-15T10:52:31;5.05;;;2.72;;
56810;SDS011;42691;47.234;27.494;2022-12-15T10:55:00;11.55;;;3.85;;
56810;SDS011;42691;47.234;27.494;2022-12-15T10:57:27;5.55;;;3.03;;
56810;SDS011;42691;47.234;27.494;2022-12-15T10:59:58;3.75;;;2.50;;
56810;SDS011;42691;47.234;27.494;2022-12-15T11:02:51;4.90;;;3.20;;
56810;SDS011;42691;47.234;27.494;2022-12-15T11:05:16;11.25;;;3.55;;
56810;SDS011;42691;47.234;27.494;2022-12-15T11:07:46;4.70;;;3.47;;
56810;SDS011;42691;47.234;27.494;2022-12-15T11:15:41;7.07;;;4.22;;
56810;SDS011;42691;47.234;27.494;2022-12-15T11:21:03;5.30;;;3.42;;
56810;SDS011;42691;47.234;27.494;2022-12-15T11:24:09;4.65;;;3.60;;
56810;SDS011;42691;47.234;27.494;2022-12-15T11:32:25;3.33;;;2.65;;
56810;SDS011;42691;47.234;27.494;2022-12-15T11:34:58;4.38;;;3.10;;
56810;SDS011;42691;47.234;27.494;2022-12-15T11:50:40;6.05;;;3.05;;
56810;SDS011;42691;47.234;27.494;2022-12-15T11:58:44;4.97;;;2.53;;
56810;SDS011;42691;47.234;27.494;2022-12-15T12:04:04;3.15;;;2.83;;
56810;SDS011;42691;47.234;27.494;2022-12-15T12:14:47;5.03;;;2.47;;
56810;SDS011;42691;47.234;27.494;2022-12-15T12:20:00;5.03;;;2.88;;
56810;SDS011;42691;47.234;27.494;2022-12-15T12:22:35;5.80;;;3.13;;
56810;SDS011;42691;47.234;27.494;2022-12-15T12:30:22;5.32;;;3.80;;
56810;SDS011;42691;47.234;27.494;2022-12-15T12:33:03;4.35;;;3.08;;
56810;SDS011;42691;47.234;27.494;2022-12-15T12:38:08;3.22;;;2.00;;
56810;SDS011;42691;47.234;27.494;2022-12-15T12:40:44;4.00;;;3.10;;
56810;SDS011;42691;47.234;27.494;2022-12-15T12:46:39;5.32;;;3.42;;
56810;SDS011;42691;47.234;27.494;2022-12-15T12:51:36;3.33;;;2.38;;
56810;SDS011;42691;47.234;27.494;2022-12-15T12:54:52;8.52;;;3.58;;
56810;SDS011;42691;47.234;27.494;2022-12-15T12:56:59;5.47;;;3.10;;
56810;SDS011;42691;47.234;27.494;2022-12-15T13:07:27;6.05;;;2.58;;
56810;SDS011;42691;47.234;27.494;2022-12-15T13:17:47;7.00;;;2.85;;
56810;SDS011;42691;47.234;27.494;2022-12-15T13:22:41;3.47;;;2.72;;
56810;SDS011;42691;47.234;27.494;2022-12-15T13:28:56;5.57;;;2.83;;
56810;SDS011;42691;47.234;27.494;2022-12-15T13:36:33;7.10;;;5.45;;
56810;SDS011;42691;47.234;27.494;2022-12-15T13:41:41;4.00;;;2.97;;
56810;SDS011;42691;47.234;27.494;2022-12-15T13:44:28;7.07;;;3.20;;
56810;SDS011;42691;47.234;27.494;2022-12-15T13:46:58;4.65;;;2.85;;
56810;SDS011;42691;47.234;27.494;2022-12-15T13:49:35;3.35;;;2.97;;
56810;SDS011;42691;47.234;27.494;2022-12-15T13:54:50;3.40;;;2.50;;
56810;SDS011;42691;47.234;27.494;2022-12-15T13:57:19;4.80;;;2.80;;
56810;SDS011;42691;47.234;27.494;2022-12-15T14:00:06;16.85;;;4.07;;
56810;SDS011;42691;47.234;27.494;2022-12-15T14:02:42;5.90;;;3.33;;
56810;SDS011;42691;47.234;27.494;2022-12-15T14:05:16;3.80;;;2.80;;
56810;SDS011;42691;47.234;27.494;2022-12-15T14:12:50;4.10;;;2.80;;
56810;SDS011;42691;47.234;27.494;2022-12-15T14:15:21;11.02;;;3.80;;
56810;SDS011;42691;47.234;27.494;2022-12-15T14:17:51;5.47;;;2.45;;
56810;SDS011;42691;47.234;27.494;2022-12-15T14:20:23;6.50;;;4.10;;
56810;SDS011;42691;47.234;27.494;2022-12-15T14:22:52;6.15;;;4.13;;
56810;SDS011;42691;47.234;27.494;2022-12-15T14:25:23;6.47;;;4.10;;
56810;SDS011;42691;47.234;27.494;2022-12-15T14:27:53;5.95;;;3.35;;
56810;SDS011;42691;47.234;27.494;2022-12-15T14:32:46;7.45;;;3.50;;
56810;SDS011;42691;47.234;27.494;2022-12-15T14:35:50;5.00;;;3.33;;
56810;SDS011;42691;47.234;27.494;2022-12-15T14:38:13;7.30;;;3.85;;
56810;SDS011;42691;47.234;27.494;2022-12-15T14:40:42;7.95;;;5.80;;
56810;SDS011;42691;47.234;27.494;2022-12-15T14:43:31;6.38;;;4.55;;
56810;SDS011;42691;47.234;27.494;2022-12-15T14:46:07;8.18;;;4.55;;
56810;SDS011;42691;47.234;27.494;2022-12-15T14:48:36;7.65;;;6.22;;
56810;SDS011;42691;47.234;27.494;2022-12-15T14:51:07;9.15;;;6.53;;
56810;SDS011;42691;47.234;27.494;2022-12-15T14:53:36;13.60;;;7.90;;
56810;SDS011;42691;47.234;27.494;2022-12-15T14:58:42;9.40;;;8.27;;
56810;SDS011;42691;47.234;27.494;2022-12-15T15:01:22;11.27;;;7.28;;
56810;SDS011;42691;47.234;27.494;2022-12-15T15:04:01;9.57;;;7.75;;
56810;SDS011;42691;47.234;27.494;2022-12-15T15:06:36;13.38;;;8.30;;
56810;SDS011;42691;47.234;27.494;2022-12-15T15:09:15;9.88;;;7.25;;
56810;SDS011;42691;47.234;27.494;2022-12-15T15:11:48;12.43;;;8.90;;
56810;SDS011;42691;47.234;27.494;2022-12-15T15:14:24;12.27;;;9.55;;
56810;SDS011;42691;47.234;27.494;2022-12-15T15:16:59;13.73;;;9.85;;
56810;SDS011;42691;47.234;27.494;2022-12-15T15:19:33;13.07;;;9.98;;
56810;SDS011;42691;47.234;27.494;2022-12-15T15:22:04;19.55;;;11.13;;
56810;SDS011;42691;47.234;27.494;2022-12-15T15:24:35;19.50;;;13.55;;
56810;SDS011;42691;47.234;27.494;2022-12-15T15:35:20;19.10;;;15.77;;
56810;SDS011;42691;47.234;27.494;2022-12-15T15:37:46;17.13;;;12.15;;
56810;SDS011;42691;47.234;27.494;2022-12-15T15:40:12;17.15;;;13.75;;
56810;SDS011;42691;47.234;27.494;2022-12-15T15:42:40;20.05;;;14.68;;
56810;SDS011;42691;47.234;27.494;2022-12-15T15:45:09;15.52;;;13.80;;
56810;SDS011;42691;47.234;27.494;2022-12-15T15:47:37;17.13;;;13.77;;
56810;SDS011;42691;47.234;27.494;2022-12-15T15:50:04;15.43;;;12.73;;
56810;SDS011;42691;47.234;27.494;2022-12-15T15:52:30;18.38;;;15.52;;
56810;SDS011;42691;47.234;27.494;2022-12-15T15:54:56;12.20;;;8.45;;
56810;SDS011;42691;47.234;27.494;2022-12-15T15:57:22;24.67;;;14.80;;
56810;SDS011;42691;47.234;27.494;2022-12-15T15:59:48;8.95;;;5.80;;
56810;SDS011;42691;47.234;27.494;2022-12-15T16:02:13;13.30;;;10.25;;
56810;SDS011;42691;47.234;27.494;2022-12-15T16:04:39;17.73;;;10.60;;
56810;SDS011;42691;47.234;27.494;2022-12-15T16:07:14;17.98;;;10.75;;
56810;SDS011;42691;47.234;27.494;2022-12-15T16:09:57;17.17;;;12.43;;
56810;SDS011;42691;47.234;27.494;2022-12-15T16:12:27;16.30;;;12.98;;
56810;SDS011;42691;47.234;27.494;2022-12-15T16:14:57;16.85;;;13.85;;
56810;SDS011;42691;47.234;27.494;2022-12-15T16:17:23;14.38;;;10.27;;
56810;SDS011;42691;47.234;27.494;2022-12-15T16:19:49;14.43;;;11.32;;
56810;SDS011;42691;47.234;27.494;2022-12-15T16:22:16;15.30;;;11.30;;
56810;SDS011;42691;47.234;27.494;2022-12-15T16:24:43;19.05;;;12.85;;
56810;SDS011;42691;47.234;27.494;2022-12-15T16:27:09;15.40;;;10.80;;
56810;SDS011;42691;47.234;27.494;2022-12-15T16:29:36;17.40;;;11.07;;
56810;SDS011;42691;47.234;27.494;2022-12-15T16:32:03;14.25;;;12.75;;
56810;SDS011;42691;47.234;27.494;2022-12-15T16:34:29;16.77;;;12.27;;
56810;SDS011;42691;47.234;27.494;2022-12-15T16:36:54;17.52;;;15.52;;
56810;SDS011;42691;47.234;27.494;2022-12-15T16:39:26;14.23;;;12.73;;
56810;SDS011;42691;47.234;27.494;2022-12-15T16:41:56;19.52;;;14.77;;
56810;SDS011;42691;47.234;27.494;2022-12-15T16:44:22;16.92;;;15.07;;
56810;SDS011;42691;47.234;27.494;2022-12-15T16:46:49;15.10;;;12.80;;
56810;SDS011;42691;47.234;27.494;2022-12-15T16:49:14;18.45;;;14.68;;
56810;SDS011;42691;47.234;27.494;2022-12-15T16:51:44;16.73;;;13.68;;
56810;SDS011;42691;47.234;27.494;2022-12-15T16:54:21;24.70;;;20.70;;
56810;SDS011;42691;47.234;27.494;2022-12-15T16:56:49;25.98;;;17.98;;
56810;SDS011;42691;47.234;27.494;2022-12-15T16:59:17;20.38;;;18.20;;
56810;SDS011;42691;47.234;27.494;2022-12-15T17:01:44;25.50;;;17.05;;
56810;SDS011;42691;47.234;27.494;2022-12-15T17:04:10;21.75;;;18.60;;
56810;SDS011;42691;47.234;27.494;2022-12-15T17:06:36;21.00;;;17.23;;
56810;SDS011;42691;47.234;27.494;2022-12-15T17:09:02;24.02;;;16.75;;
56810;SDS011;42691;47.234;27.494;2022-12-15T17:11:28;21.42;;;15.45;;
56810;SDS011;42691;47.234;27.494;2022-12-15T17:13:56;18.58;;;12.65;;
56810;SDS011;42691;47.234;27.494;2022-12-15T17:16:25;19.60;;;17.67;;
56810;SDS011;42691;47.234;27.494;2022-12-15T17:18:52;15.63;;;12.75;;
56810;SDS011;42691;47.234;27.494;2022-12-15T17:24:15;17.30;;;12.00;;
56810;SDS011;42691;47.234;27.494;2022-12-15T17:26:43;17.90;;;11.82;;
56810;SDS011;42691;47.234;27.494;2022-12-15T17:29:13;13.60;;;11.80;;
56810;SDS011;42691;47.234;27.494;2022-12-15T17:31:40;16.70;;;11.77;;
56810;SDS011;42691;47.234;27.494;2022-12-15T17:34:21;16.35;;;13.55;;
56810;SDS011;42691;47.234;27.494;2022-12-15T17:36:52;14.60;;;11.30;;
56810;SDS011;42691;47.234;27.494;2022-12-15T17:39:19;14.90;;;12.20;;
56810;SDS011;42691;47.234;27.494;2022-12-15T17:41:45;19.58;;;17.50;;